SJX713 WIII-RCTP
Flight info
| Callsign | SJX713 |
|---|---|
| Flight time | N/A |
| Altitude | 37000 |
| Route | AMBOY2A AMBOY P648 VJN/N0491F390 M646 MIA/N0492F380 B462 LAO/N0488F390 M646 HCN W4 TNN TNN1A |
| Aircraft | A35K/H-SDE2E3GHIJ3J4J5LM1ORWXY/LB1D1 |
Departure
| Time | 2026-04-30 09:19 |
|---|---|
| Airport | Soekarno-Hatta International Airport (WIII) |
Arrival
| Time | N/A |
|---|---|
| Airport | Taiwan Taoyuan International Airport (RCTP) |
| Time | Latitude | Longitude | Altitude | Speed | Heading |
|---|---|---|---|---|---|
| 2026-04-30 09:00 | -6.11730 | 106.66533 | 38 ft | 0 kts | 158° |
| 2026-04-30 09:04 | -6.11729 | 106.66533 | 38 ft | 0 kts | 158° |
| 2026-04-30 09:06 | -6.11722 | 106.66530 | 38 ft | 1 kts | 158° |
| 2026-04-30 09:07 | -6.11706 | 106.66523 | 37 ft | 3 kts | 158° |
| 2026-04-30 09:07 | -6.11689 | 106.66516 | 36 ft | 3 kts | 154° |
| 2026-04-30 09:07 | -6.11672 | 106.66507 | 35 ft | 3 kts | 159° |
| 2026-04-30 09:07 | -6.11653 | 106.66504 | 35 ft | 3 kts | 194° |
| 2026-04-30 09:08 | -6.11636 | 106.66511 | 35 ft | 3 kts | 217° |
| 2026-04-30 09:08 | -6.11622 | 106.66525 | 36 ft | 2 kts | 249° |
| 2026-04-30 09:08 | -6.11621 | 106.66527 | 36 ft | 0 kts | 249° |
| 2026-04-30 09:11 | -6.11622 | 106.66525 | 38 ft | 1 kts | 248° |
| 2026-04-30 09:11 | -6.11631 | 106.66503 | 38 ft | 6 kts | 248° |
| 2026-04-30 09:11 | -6.11648 | 106.66458 | 38 ft | 8 kts | 251° |
| 2026-04-30 09:11 | -6.11641 | 106.66414 | 38 ft | 6 kts | 307° |
| 2026-04-30 09:12 | -6.11597 | 106.66391 | 38 ft | 9 kts | 340° |
| 2026-04-30 09:12 | -6.11532 | 106.66366 | 38 ft | 11 kts | 339° |
| 2026-04-30 09:12 | -6.11458 | 106.66336 | 38 ft | 12 kts | 338° |
| 2026-04-30 09:12 | -6.11375 | 106.66299 | 38 ft | 13 kts | 322° |
| 2026-04-30 09:13 | -6.11367 | 106.66216 | 38 ft | 13 kts | 253° |
| 2026-04-30 09:13 | -6.11400 | 106.66129 | 38 ft | 14 kts | 249° |
| 2026-04-30 09:13 | -6.11439 | 106.66031 | 37 ft | 16 kts | 248° |
| 2026-04-30 09:13 | -6.11485 | 106.65914 | 34 ft | 19 kts | 248° |
| 2026-04-30 09:14 | -6.11532 | 106.65796 | 34 ft | 16 kts | 248° |
| 2026-04-30 09:14 | -6.11575 | 106.65688 | 35 ft | 17 kts | 248° |
| 2026-04-30 09:14 | -6.11621 | 106.65571 | 35 ft | 19 kts | 248° |
| 2026-04-30 09:14 | -6.11670 | 106.65452 | 37 ft | 18 kts | 248° |
| 2026-04-30 09:15 | -6.11716 | 106.65337 | 40 ft | 18 kts | 248° |
| 2026-04-30 09:15 | -6.11762 | 106.65221 | 41 ft | 19 kts | 248° |
| 2026-04-30 09:15 | -6.11811 | 106.65098 | 42 ft | 19 kts | 248° |
| 2026-04-30 09:15 | -6.11861 | 106.64973 | 43 ft | 20 kts | 248° |
| 2026-04-30 09:16 | -6.11914 | 106.64839 | 42 ft | 21 kts | 248° |
| 2026-04-30 09:16 | -6.11965 | 106.64712 | 44 ft | 17 kts | 248° |
| 2026-04-30 09:16 | -6.12009 | 106.64601 | 44 ft | 18 kts | 248° |
| 2026-04-30 09:16 | -6.12059 | 106.64476 | 42 ft | 20 kts | 248° |
| 2026-04-30 09:17 | -6.12112 | 106.64342 | 43 ft | 21 kts | 248° |
| 2026-04-30 09:17 | -6.12168 | 106.64203 | 43 ft | 22 kts | 248° |
| 2026-04-30 09:17 | -6.12224 | 106.64063 | 44 ft | 18 kts | 248° |
| 2026-04-30 09:17 | -6.12256 | 106.63947 | 47 ft | 17 kts | 276° |
| 2026-04-30 09:18 | -6.12185 | 106.63891 | 47 ft | 13 kts | 1° |
| 2026-04-30 09:18 | -6.12099 | 106.63925 | 44 ft | 15 kts | 36° |
| 2026-04-30 09:18 | -6.12050 | 106.64022 | 43 ft | 17 kts | 69° |
| 2026-04-30 09:18 | -6.11951 | 106.64269 | 41 ft | 71 kts | 68° |
| 2026-04-30 09:19 | -6.11687 | 106.64926 | 47 ft | 131 kts | 68° |
| 2026-04-30 09:19 | -6.11275 | 106.65934 | 90 ft | 177 kts | 64° |
| 2026-04-30 09:19 | -6.10827 | 106.67071 | 736 ft | 172 kts | 66° |
| 2026-04-30 09:19 | -6.10479 | 106.68214 | 1350 ft | 176 kts | 78° |
| 2026-04-30 09:20 | -6.09940 | 106.69345 | 1552 ft | 192 kts | 45° |
| 2026-04-30 09:20 | -6.08840 | 106.70230 | 1756 ft | 214 kts | 37° |
| 2026-04-30 09:20 | -6.07612 | 106.71194 | 2005 ft | 235 kts | 40° |
| 2026-04-30 09:20 | -6.06344 | 106.72319 | 2337 ft | 250 kts | 43° |
| 2026-04-30 09:21 | -6.05086 | 106.73537 | 2953 ft | 252 kts | 45° |
| 2026-04-30 09:21 | -6.03837 | 106.74798 | 3450 ft | 258 kts | 46° |
| 2026-04-30 09:21 | -6.02572 | 106.76100 | 4020 ft | 261 kts | 47° |
| 2026-04-30 09:21 | -6.01309 | 106.77414 | 4651 ft | 263 kts | 47° |
| 2026-04-30 09:22 | -6.00026 | 106.78757 | 5164 ft | 268 kts | 47° |
| 2026-04-30 09:22 | -5.98734 | 106.80110 | 5802 ft | 268 kts | 47° |
| 2026-04-30 09:22 | -5.97439 | 106.81470 | 6392 ft | 272 kts | 46° |
| 2026-04-30 09:22 | -5.96175 | 106.82904 | 6905 ft | 275 kts | 54° |
| 2026-04-30 09:23 | -5.95161 | 106.84530 | 7493 ft | 276 kts | 60° |
| 2026-04-30 09:23 | -5.94226 | 106.86224 | 8040 ft | 279 kts | 62° |
| 2026-04-30 09:23 | -5.93299 | 106.87941 | 8643 ft | 281 kts | 62° |
| 2026-04-30 09:23 | -5.92364 | 106.89668 | 9216 ft | 283 kts | 62° |
| 2026-04-30 09:24 | -5.91410 | 106.91421 | 9757 ft | 288 kts | 62° |
| 2026-04-30 09:24 | -5.90771 | 106.92590 | 10081 ft | 291 kts | 62° |
| 2026-04-30 09:24 | -5.89772 | 106.94415 | 10317 ft | 305 kts | 62° |
| 2026-04-30 09:24 | -5.88722 | 106.96330 | 10510 ft | 320 kts | 62° |
| 2026-04-30 09:25 | -5.87625 | 106.98326 | 10721 ft | 333 kts | 62° |
| 2026-04-30 09:25 | -5.86483 | 107.00405 | 10910 ft | 346 kts | 62° |
| 2026-04-30 09:25 | -5.85299 | 107.02559 | 11098 ft | 358 kts | 62° |
| 2026-04-30 09:25 | -5.84078 | 107.04782 | 11274 ft | 369 kts | 62° |
| 2026-04-30 09:26 | -5.82822 | 107.07066 | 11463 ft | 378 kts | 62° |
| 2026-04-30 09:26 | -5.81549 | 107.09382 | 11827 ft | 382 kts | 62° |
| 2026-04-30 09:26 | -5.80255 | 107.11734 | 12169 ft | 386 kts | 62° |
| 2026-04-30 09:26 | -5.78954 | 107.14093 | 12582 ft | 388 kts | 62° |
| 2026-04-30 09:27 | -5.77640 | 107.16475 | 12966 ft | 391 kts | 62° |
| 2026-04-30 09:27 | -5.76323 | 107.18866 | 13374 ft | 392 kts | 62° |
| 2026-04-30 09:27 | -5.74995 | 107.21273 | 13748 ft | 395 kts | 62° |
| 2026-04-30 09:27 | -5.73661 | 107.23693 | 14083 ft | 397 kts | 62° |
| 2026-04-30 09:28 | -5.72323 | 107.26125 | 14434 ft | 399 kts | 62° |
| 2026-04-30 09:28 | -5.70979 | 107.28573 | 14784 ft | 401 kts | 62° |
| 2026-04-30 09:28 | -5.69628 | 107.31027 | 15128 ft | 403 kts | 62° |
| 2026-04-30 09:28 | -5.68271 | 107.33493 | 15497 ft | 405 kts | 62° |
| 2026-04-30 09:29 | -5.66908 | 107.35970 | 15830 ft | 407 kts | 62° |
| 2026-04-30 09:29 | -5.65534 | 107.38467 | 16183 ft | 409 kts | 62° |
| 2026-04-30 09:29 | -5.64155 | 107.40972 | 16520 ft | 411 kts | 62° |
| 2026-04-30 09:29 | -5.62787 | 107.43458 | 16869 ft | 413 kts | 62° |
| 2026-04-30 09:30 | -5.61394 | 107.45989 | 17211 ft | 415 kts | 62° |
| 2026-04-30 09:30 | -5.59995 | 107.48530 | 17556 ft | 417 kts | 62° |
| 2026-04-30 09:30 | -5.58588 | 107.51087 | 17871 ft | 419 kts | 62° |
| 2026-04-30 09:30 | -5.57157 | 107.53686 | 18199 ft | 421 kts | 62° |
| 2026-04-30 09:31 | -5.55753 | 107.56235 | 18478 ft | 423 kts | 62° |
| 2026-04-30 09:31 | -5.54326 | 107.58827 | 18749 ft | 425 kts | 62° |
| 2026-04-30 09:31 | -5.52892 | 107.61431 | 19043 ft | 427 kts | 62° |
| 2026-04-30 09:31 | -5.51456 | 107.64038 | 19326 ft | 428 kts | 62° |
| 2026-04-30 09:32 | -5.50011 | 107.66661 | 19595 ft | 430 kts | 62° |
| 2026-04-30 09:32 | -5.48562 | 107.69291 | 19872 ft | 432 kts | 62° |
| 2026-04-30 09:32 | -5.47100 | 107.71935 | 20136 ft | 434 kts | 61° |
| 2026-04-30 09:32 | -5.45471 | 107.74487 | 20399 ft | 436 kts | 54° |
| 2026-04-30 09:33 | -5.43457 | 107.76775 | 20651 ft | 439 kts | 44° |
| 2026-04-30 09:33 | -5.41074 | 107.78689 | 20915 ft | 441 kts | 34° |
| 2026-04-30 09:33 | -5.38375 | 107.80176 | 21162 ft | 444 kts | 25° |
| 2026-04-30 09:33 | -5.35454 | 107.81221 | 21422 ft | 447 kts | 18° |
| 2026-04-30 09:34 | -5.32459 | 107.82092 | 21673 ft | 449 kts | 17° |
| 2026-04-30 09:34 | -5.29449 | 107.82946 | 21914 ft | 451 kts | 17° |
| 2026-04-30 09:34 | -5.26422 | 107.83812 | 22152 ft | 453 kts | 17° |
| 2026-04-30 09:34 | -5.23392 | 107.84685 | 22381 ft | 454 kts | 17° |
| 2026-04-30 09:35 | -5.20354 | 107.85564 | 22621 ft | 456 kts | 17° |
| 2026-04-30 09:35 | -5.17299 | 107.86450 | 22844 ft | 458 kts | 17° |
| 2026-04-30 09:35 | -5.14232 | 107.87341 | 23075 ft | 459 kts | 17° |
| 2026-04-30 09:35 | -5.11160 | 107.88233 | 23285 ft | 461 kts | 17° |
| 2026-04-30 09:36 | -5.08071 | 107.89131 | 23509 ft | 463 kts | 17° |
| 2026-04-30 09:36 | -5.04976 | 107.90031 | 23724 ft | 464 kts | 17° |
| 2026-04-30 09:36 | -5.01872 | 107.90933 | 23908 ft | 465 kts | 17° |
| 2026-04-30 09:36 | -4.98761 | 107.91837 | 24109 ft | 466 kts | 17° |
| 2026-04-30 09:37 | -4.95642 | 107.92744 | 24300 ft | 468 kts | 17° |
| 2026-04-30 09:37 | -4.92511 | 107.93654 | 24486 ft | 469 kts | 17° |
| 2026-04-30 09:37 | -4.89377 | 107.94565 | 24667 ft | 470 kts | 17° |
| 2026-04-30 09:37 | -4.86229 | 107.95480 | 24830 ft | 471 kts | 17° |
| 2026-04-30 09:38 | -4.83076 | 107.96397 | 25018 ft | 473 kts | 17° |
| 2026-04-30 09:38 | -4.79914 | 107.97321 | 25208 ft | 474 kts | 18° |
| 2026-04-30 09:38 | -4.76746 | 107.98243 | 25379 ft | 475 kts | 17° |
| 2026-04-30 09:38 | -4.73694 | 107.99129 | 25544 ft | 476 kts | 17° |
| 2026-04-30 09:39 | -4.70509 | 108.00053 | 25713 ft | 477 kts | 17° |
| 2026-04-30 09:39 | -4.67316 | 108.00980 | 25878 ft | 479 kts | 17° |
| 2026-04-30 09:39 | -4.64110 | 108.01912 | 26054 ft | 480 kts | 17° |
| 2026-04-30 09:39 | -4.60895 | 108.02846 | 26241 ft | 481 kts | 17° |
| 2026-04-30 09:40 | -4.57681 | 108.03781 | 26405 ft | 482 kts | 18° |
| 2026-04-30 09:40 | -4.54450 | 108.04720 | 26573 ft | 483 kts | 18° |
| 2026-04-30 09:40 | -4.51217 | 108.05659 | 26729 ft | 485 kts | 18° |
| 2026-04-30 09:40 | -4.47974 | 108.06602 | 26900 ft | 486 kts | 18° |
| 2026-04-30 09:41 | -4.44722 | 108.07547 | 27057 ft | 487 kts | 18° |
| 2026-04-30 09:41 | -4.41463 | 108.08493 | 27218 ft | 488 kts | 18° |
| 2026-04-30 09:41 | -4.38193 | 108.09444 | 27370 ft | 489 kts | 18° |
| 2026-04-30 09:41 | -4.34920 | 108.10395 | 27541 ft | 491 kts | 18° |
| 2026-04-30 09:42 | -4.31644 | 108.11346 | 27767 ft | 490 kts | 17° |
| 2026-04-30 09:42 | -4.28374 | 108.12296 | 27981 ft | 490 kts | 17° |
| 2026-04-30 09:42 | -4.25094 | 108.13248 | 28122 ft | 491 kts | 17° |
| 2026-04-30 09:42 | -4.21799 | 108.14205 | 28280 ft | 493 kts | 17° |
| 2026-04-30 09:43 | -4.18509 | 108.15161 | 28413 ft | 494 kts | 17° |
| 2026-04-30 09:43 | -4.15252 | 108.16249 | 28564 ft | 494 kts | 23° |
| 2026-04-30 09:43 | -4.12175 | 108.17770 | 28688 ft | 493 kts | 32° |
| 2026-04-30 09:43 | -4.09343 | 108.19704 | 28826 ft | 493 kts | 37° |
| 2026-04-30 09:44 | -4.06598 | 108.21778 | 28961 ft | 494 kts | 38° |
| 2026-04-30 09:44 | -4.03894 | 108.23905 | 29097 ft | 495 kts | 39° |
| 2026-04-30 09:44 | -4.01201 | 108.26056 | 29214 ft | 496 kts | 39° |
| 2026-04-30 09:44 | -3.98508 | 108.28209 | 29367 ft | 497 kts | 39° |
| 2026-04-30 09:45 | -3.93066 | 108.32520 | 29549 ft | 500 kts | 39° |
| 2026-04-30 09:45 | -3.90331 | 108.34669 | 29711 ft | 501 kts | 39° |
| 2026-04-30 09:45 | -3.87585 | 108.36820 | 29829 ft | 501 kts | 39° |
| 2026-04-30 09:46 | -3.84834 | 108.38972 | 29966 ft | 502 kts | 39° |
| 2026-04-30 09:46 | -3.82084 | 108.41122 | 30134 ft | 501 kts | 39° |
| 2026-04-30 09:46 | -3.79335 | 108.43271 | 30310 ft | 501 kts | 39° |
| 2026-04-30 09:46 | -3.76587 | 108.45419 | 30477 ft | 501 kts | 39° |
| 2026-04-30 09:47 | -3.73838 | 108.47568 | 30659 ft | 500 kts | 39° |
| 2026-04-30 09:47 | -3.71097 | 108.49712 | 30839 ft | 500 kts | 39° |
| 2026-04-30 09:47 | -3.68356 | 108.51855 | 31032 ft | 500 kts | 39° |
| 2026-04-30 09:47 | -3.65615 | 108.53999 | 31210 ft | 500 kts | 39° |
| 2026-04-30 09:48 | -3.62876 | 108.56140 | 31392 ft | 499 kts | 39° |
| 2026-04-30 09:48 | -3.60140 | 108.58280 | 31578 ft | 499 kts | 39° |
| 2026-04-30 09:48 | -3.57438 | 108.60392 | 31718 ft | 500 kts | 39° |
| 2026-04-30 09:48 | -3.54694 | 108.62537 | 31879 ft | 500 kts | 39° |
| 2026-04-30 09:49 | -3.51955 | 108.64678 | 32089 ft | 500 kts | 39° |
| 2026-04-30 09:49 | -3.49219 | 108.66817 | 32297 ft | 499 kts | 39° |
| 2026-04-30 09:49 | -3.46488 | 108.68951 | 32480 ft | 499 kts | 39° |
| 2026-04-30 09:49 | -3.43751 | 108.71090 | 32697 ft | 498 kts | 39° |
| 2026-04-30 09:50 | -3.41024 | 108.73222 | 32875 ft | 498 kts | 39° |
| 2026-04-30 09:50 | -3.38294 | 108.75354 | 33074 ft | 498 kts | 39° |
| 2026-04-30 09:50 | -3.35567 | 108.77485 | 33267 ft | 497 kts | 39° |
| 2026-04-30 09:50 | -3.32833 | 108.79621 | 33476 ft | 498 kts | 39° |
| 2026-04-30 09:51 | -3.30106 | 108.81752 | 33636 ft | 498 kts | 39° |
| 2026-04-30 09:51 | -3.27379 | 108.83881 | 33844 ft | 498 kts | 39° |
| 2026-04-30 09:51 | -3.24653 | 108.86011 | 34039 ft | 497 kts | 39° |
| 2026-04-30 09:51 | -3.21926 | 108.88142 | 34235 ft | 497 kts | 39° |
| 2026-04-30 09:52 | -3.19204 | 108.90267 | 34455 ft | 496 kts | 39° |
| 2026-04-30 09:52 | -3.16479 | 108.92395 | 34645 ft | 496 kts | 39° |
| 2026-04-30 09:52 | -3.13763 | 108.94516 | 34850 ft | 495 kts | 39° |
| 2026-04-30 09:52 | -3.11050 | 108.96635 | 35061 ft | 495 kts | 39° |
| 2026-04-30 09:53 | -3.08340 | 108.98751 | 35264 ft | 494 kts | 39° |
| 2026-04-30 09:53 | -3.05631 | 109.00866 | 35468 ft | 494 kts | 39° |
| 2026-04-30 09:53 | -3.02918 | 109.02984 | 35680 ft | 493 kts | 39° |
| 2026-04-30 09:53 | -3.00217 | 109.05092 | 35866 ft | 493 kts | 39° |
| 2026-04-30 09:54 | -2.97512 | 109.07204 | 36073 ft | 493 kts | 39° |
| 2026-04-30 09:54 | -2.94809 | 109.09313 | 36271 ft | 492 kts | 39° |
| 2026-04-30 09:54 | -2.92115 | 109.11416 | 36469 ft | 492 kts | 39° |
| 2026-04-30 09:54 | -2.89421 | 109.13519 | 36690 ft | 491 kts | 39° |
| 2026-04-30 09:55 | -2.86739 | 109.15633 | 36848 ft | 491 kts | 40° |
| 2026-04-30 09:55 | -2.84071 | 109.17782 | 36875 ft | 493 kts | 40° |
| 2026-04-30 09:55 | -2.78748 | 109.22120 | 36875 ft | 494 kts | 40° |
| 2026-04-30 09:56 | -2.73410 | 109.26465 | 36876 ft | 494 kts | 40° |
| 2026-04-30 09:56 | -2.68072 | 109.30790 | 36875 ft | 494 kts | 40° |
| 2026-04-30 09:57 | -2.62726 | 109.35115 | 36876 ft | 494 kts | 40° |
| 2026-04-30 09:57 | -2.57387 | 109.39432 | 36873 ft | 494 kts | 40° |
| 2026-04-30 09:58 | -2.52040 | 109.43756 | 36873 ft | 494 kts | 40° |
| 2026-04-30 09:58 | -2.46695 | 109.48077 | 36871 ft | 493 kts | 40° |
| 2026-04-30 09:59 | -2.36042 | 109.56691 | 36870 ft | 492 kts | 40° |
| 2026-04-30 10:00 | -2.28056 | 109.63146 | 36873 ft | 492 kts | 40° |
| 2026-04-30 10:01 | -2.20068 | 109.69603 | 36866 ft | 492 kts | 40° |
| 2026-04-30 10:02 | -2.12083 | 109.76056 | 36867 ft | 492 kts | 40° |
| 2026-04-30 10:02 | -2.06756 | 109.80361 | 36870 ft | 492 kts | 40° |
| 2026-04-30 10:03 | -2.01436 | 109.84659 | 36871 ft | 491 kts | 40° |
| 2026-04-30 10:03 | -1.96119 | 109.88954 | 36870 ft | 491 kts | 40° |
| 2026-04-30 10:04 | -1.90805 | 109.93247 | 36870 ft | 491 kts | 40° |
| 2026-04-30 10:04 | -1.85519 | 109.97517 | 36870 ft | 491 kts | 40° |
| 2026-04-30 10:05 | -1.80165 | 110.01842 | 36873 ft | 491 kts | 40° |
| 2026-04-30 10:05 | -1.74889 | 110.06103 | 36872 ft | 491 kts | 40° |
| 2026-04-30 10:06 | -1.69586 | 110.10386 | 36870 ft | 490 kts | 40° |
| 2026-04-30 10:06 | -1.64238 | 110.14620 | 36871 ft | 490 kts | 39° |
| 2026-04-30 10:07 | -1.58788 | 110.18719 | 36870 ft | 490 kts | 38° |
| 2026-04-30 10:07 | -1.53333 | 110.22811 | 36870 ft | 490 kts | 38° |
| 2026-04-30 10:08 | -1.47891 | 110.26929 | 36873 ft | 490 kts | 38° |
| 2026-04-30 10:08 | -1.43342 | 110.30384 | 36872 ft | 490 kts | 39° |
| 2026-04-30 10:09 | -1.37024 | 110.35188 | 36873 ft | 492 kts | 38° |
| 2026-04-30 10:09 | -1.32455 | 110.38661 | 36871 ft | 492 kts | 38° |
| 2026-04-30 10:10 | -1.27014 | 110.42808 | 36870 ft | 492 kts | 39° |
| 2026-04-30 10:10 | -1.21617 | 110.47015 | 36870 ft | 492 kts | 39° |
| 2026-04-30 10:11 | -1.16234 | 110.51235 | 36876 ft | 492 kts | 39° |
| 2026-04-30 10:11 | -1.10853 | 110.55443 | 36870 ft | 491 kts | 39° |
| 2026-04-30 10:12 | -1.05499 | 110.59621 | 36873 ft | 491 kts | 39° |
| 2026-04-30 10:12 | -1.00077 | 110.63848 | 36873 ft | 490 kts | 39° |
| 2026-04-30 10:13 | -0.94740 | 110.68010 | 36873 ft | 490 kts | 39° |
| 2026-04-30 10:13 | -0.89325 | 110.72233 | 36873 ft | 490 kts | 39° |
| 2026-04-30 10:14 | -0.83951 | 110.76423 | 36884 ft | 490 kts | 39° |
| 2026-04-30 10:14 | -0.75919 | 110.82687 | 36884 ft | 491 kts | 39° |
| 2026-04-30 10:15 | -0.70529 | 110.86890 | 36883 ft | 492 kts | 39° |
| 2026-04-30 10:15 | -0.65125 | 110.91103 | 36889 ft | 494 kts | 39° |
| 2026-04-30 10:16 | -0.59705 | 110.95329 | 36889 ft | 494 kts | 39° |
| 2026-04-30 10:17 | -0.51568 | 111.01673 | 36885 ft | 494 kts | 39° |
| 2026-04-30 10:17 | -0.43429 | 111.08018 | 36887 ft | 494 kts | 39° |
| 2026-04-30 10:18 | -0.38011 | 111.12243 | 36880 ft | 494 kts | 39° |
| 2026-04-30 10:19 | -0.29871 | 111.18571 | 36884 ft | 493 kts | 39° |
| 2026-04-30 10:19 | -0.24452 | 111.22765 | 36873 ft | 492 kts | 39° |
| 2026-04-30 10:20 | -0.19007 | 111.26985 | 36870 ft | 492 kts | 39° |
| 2026-04-30 10:20 | -0.10923 | 111.33257 | 36865 ft | 492 kts | 39° |
| 2026-04-30 10:21 | -0.05511 | 111.37456 | 36865 ft | 492 kts | 39° |
| 2026-04-30 10:21 | -0.00100 | 111.41655 | 36867 ft | 492 kts | 39° |
| 2026-04-30 10:22 | 0.05347 | 111.45881 | 36866 ft | 494 kts | 39° |
| 2026-04-30 10:22 | 0.10743 | 111.50068 | 36864 ft | 494 kts | 39° |
| 2026-04-30 10:23 | 0.16168 | 111.54277 | 36867 ft | 494 kts | 39° |
| 2026-04-30 10:23 | 0.21600 | 111.58492 | 36867 ft | 494 kts | 39° |
| 2026-04-30 10:24 | 0.27030 | 111.62704 | 36867 ft | 494 kts | 39° |
| 2026-04-30 10:24 | 0.32452 | 111.66911 | 36867 ft | 494 kts | 39° |
| 2026-04-30 10:25 | 0.37885 | 111.71127 | 36867 ft | 494 kts | 39° |
| 2026-04-30 10:25 | 0.43311 | 111.75337 | 36867 ft | 494 kts | 39° |
| 2026-04-30 10:26 | 0.48737 | 111.79547 | 36869 ft | 494 kts | 39° |
| 2026-04-30 10:26 | 0.54166 | 111.83760 | 36873 ft | 494 kts | 39° |
| 2026-04-30 10:27 | 0.59598 | 111.87975 | 36873 ft | 494 kts | 39° |
| 2026-04-30 10:27 | 0.65025 | 111.92186 | 36873 ft | 494 kts | 39° |
| 2026-04-30 10:28 | 0.70457 | 111.96401 | 36876 ft | 494 kts | 39° |
| 2026-04-30 10:28 | 0.75895 | 112.00621 | 36870 ft | 495 kts | 39° |
| 2026-04-30 10:29 | 0.81342 | 112.04848 | 36870 ft | 496 kts | 39° |
| 2026-04-30 10:29 | 0.86788 | 112.09075 | 36870 ft | 496 kts | 39° |
| 2026-04-30 10:30 | 0.92239 | 112.13305 | 36870 ft | 496 kts | 39° |
| 2026-04-30 10:30 | 0.97686 | 112.17533 | 36870 ft | 496 kts | 39° |
| 2026-04-30 10:31 | 1.03133 | 112.21761 | 36873 ft | 496 kts | 39° |
| 2026-04-30 10:31 | 1.08581 | 112.25990 | 36873 ft | 496 kts | 39° |
| 2026-04-30 10:32 | 1.14030 | 112.30219 | 36884 ft | 496 kts | 39° |
| 2026-04-30 10:32 | 1.19472 | 112.34444 | 36880 ft | 496 kts | 39° |
| 2026-04-30 10:33 | 1.24917 | 112.38670 | 36881 ft | 496 kts | 39° |
| 2026-04-30 10:33 | 1.30367 | 112.42901 | 36889 ft | 496 kts | 39° |
| 2026-04-30 10:34 | 1.35779 | 112.47104 | 36892 ft | 496 kts | 39° |
| 2026-04-30 10:34 | 1.41219 | 112.51327 | 36890 ft | 495 kts | 39° |
| 2026-04-30 10:35 | 1.46662 | 112.55555 | 36896 ft | 496 kts | 39° |
| 2026-04-30 10:35 | 1.52112 | 112.59788 | 36895 ft | 496 kts | 39° |
| 2026-04-30 10:36 | 1.57568 | 112.64026 | 36885 ft | 497 kts | 39° |
| 2026-04-30 10:36 | 1.63002 | 112.68280 | 36886 ft | 496 kts | 39° |
| 2026-04-30 10:37 | 1.68436 | 112.72550 | 36886 ft | 496 kts | 39° |
| 2026-04-30 10:37 | 1.73866 | 112.76815 | 36878 ft | 496 kts | 39° |
| 2026-04-30 10:38 | 1.79298 | 112.81079 | 36879 ft | 497 kts | 39° |
| 2026-04-30 10:38 | 1.84741 | 112.85349 | 36870 ft | 498 kts | 39° |
| 2026-04-30 10:39 | 1.90189 | 112.89624 | 36867 ft | 498 kts | 39° |
| 2026-04-30 10:39 | 1.95634 | 112.93897 | 36870 ft | 498 kts | 39° |
| 2026-04-30 10:40 | 2.01082 | 112.98173 | 36869 ft | 498 kts | 39° |
| 2026-04-30 10:40 | 2.06529 | 113.02448 | 36867 ft | 498 kts | 39° |
| 2026-04-30 10:41 | 2.11984 | 113.06730 | 36865 ft | 498 kts | 39° |
| 2026-04-30 10:41 | 2.17427 | 113.11002 | 36858 ft | 497 kts | 39° |
| 2026-04-30 10:42 | 2.22865 | 113.15272 | 36862 ft | 497 kts | 39° |
| 2026-04-30 10:42 | 2.28300 | 113.19539 | 36859 ft | 497 kts | 39° |
| 2026-04-30 10:43 | 2.33742 | 113.23813 | 36859 ft | 497 kts | 39° |
| 2026-04-30 10:43 | 2.39177 | 113.28082 | 36859 ft | 497 kts | 39° |
| 2026-04-30 10:44 | 2.44614 | 113.32352 | 36859 ft | 497 kts | 39° |
| 2026-04-30 10:44 | 2.50059 | 113.36629 | 36862 ft | 498 kts | 39° |
| 2026-04-30 10:45 | 2.55504 | 113.40907 | 36859 ft | 498 kts | 39° |
| 2026-04-30 10:45 | 2.60916 | 113.45160 | 36858 ft | 498 kts | 39° |
| 2026-04-30 10:46 | 2.66354 | 113.49433 | 36859 ft | 497 kts | 39° |
| 2026-04-30 10:46 | 2.71783 | 113.53700 | 36859 ft | 496 kts | 39° |
| 2026-04-30 10:47 | 2.77214 | 113.57970 | 36859 ft | 496 kts | 39° |
| 2026-04-30 10:47 | 2.82636 | 113.62247 | 36860 ft | 497 kts | 39° |
| 2026-04-30 10:48 | 2.88067 | 113.66527 | 36860 ft | 497 kts | 39° |
| 2026-04-30 10:48 | 2.93504 | 113.70813 | 36859 ft | 498 kts | 39° |
| 2026-04-30 10:49 | 2.98942 | 113.75102 | 36857 ft | 498 kts | 39° |
| 2026-04-30 10:49 | 3.04372 | 113.79384 | 36865 ft | 496 kts | 39° |
| 2026-04-30 10:50 | 3.09781 | 113.83651 | 36858 ft | 495 kts | 39° |
| 2026-04-30 10:50 | 3.15187 | 113.87917 | 36870 ft | 495 kts | 39° |
| 2026-04-30 10:51 | 3.20587 | 113.92179 | 36869 ft | 494 kts | 39° |
| 2026-04-30 10:51 | 3.25983 | 113.96438 | 36862 ft | 493 kts | 39° |
| 2026-04-30 10:52 | 3.31363 | 114.00685 | 36860 ft | 493 kts | 39° |
| 2026-04-30 10:52 | 3.36760 | 114.04945 | 36856 ft | 493 kts | 39° |
| 2026-04-30 10:53 | 3.41239 | 114.08481 | 36853 ft | 493 kts | 39° |
| 2026-04-30 10:53 | 3.46622 | 114.12731 | 36852 ft | 492 kts | 39° |
| 2026-04-30 10:54 | 3.51994 | 114.16974 | 36845 ft | 493 kts | 39° |
| 2026-04-30 10:54 | 3.57377 | 114.21228 | 36847 ft | 493 kts | 39° |
| 2026-04-30 10:55 | 3.62752 | 114.25474 | 36852 ft | 493 kts | 39° |
| 2026-04-30 10:55 | 3.68137 | 114.29729 | 36847 ft | 493 kts | 39° |
| 2026-04-30 10:56 | 3.73517 | 114.33981 | 36846 ft | 493 kts | 39° |
| 2026-04-30 10:56 | 3.78896 | 114.38232 | 36840 ft | 493 kts | 39° |
| 2026-04-30 10:57 | 3.84273 | 114.42483 | 36848 ft | 493 kts | 39° |
| 2026-04-30 10:57 | 3.89658 | 114.46741 | 36841 ft | 493 kts | 39° |
| 2026-04-30 10:58 | 3.95037 | 114.50987 | 36844 ft | 493 kts | 39° |
| 2026-04-30 10:58 | 3.99934 | 114.54691 | 36849 ft | 493 kts | 38° |
| 2026-04-30 10:59 | 4.05449 | 114.58787 | 36841 ft | 493 kts | 38° |
| 2026-04-30 10:59 | 4.10941 | 114.62889 | 36841 ft | 493 kts | 38° |
| 2026-04-30 11:00 | 4.16427 | 114.67012 | 36855 ft | 493 kts | 38° |
| 2026-04-30 11:00 | 4.21909 | 114.71141 | 36855 ft | 493 kts | 38° |
| 2026-04-30 11:01 | 4.27388 | 114.75269 | 36856 ft | 493 kts | 38° |
| 2026-04-30 11:01 | 4.32866 | 114.79396 | 36858 ft | 493 kts | 38° |
| 2026-04-30 11:02 | 4.38342 | 114.83521 | 36859 ft | 493 kts | 38° |
| 2026-04-30 11:02 | 4.43822 | 114.87650 | 36853 ft | 493 kts | 38° |
| 2026-04-30 11:03 | 4.49165 | 114.91860 | 36854 ft | 492 kts | 40° |
| 2026-04-30 11:04 | 4.57124 | 114.98389 | 36849 ft | 494 kts | 40° |
| 2026-04-30 11:04 | 4.62496 | 115.02767 | 36853 ft | 494 kts | 40° |
| 2026-04-30 11:05 | 4.67798 | 115.07063 | 36854 ft | 493 kts | 40° |
| 2026-04-30 11:05 | 4.73128 | 115.11376 | 36850 ft | 493 kts | 40° |
| 2026-04-30 11:06 | 4.78498 | 115.15723 | 36858 ft | 493 kts | 40° |
| 2026-04-30 11:06 | 4.83792 | 115.20010 | 36844 ft | 493 kts | 40° |
| 2026-04-30 11:07 | 4.89176 | 115.24336 | 36843 ft | 494 kts | 39° |
| 2026-04-30 11:07 | 4.94548 | 115.28567 | 36853 ft | 494 kts | 39° |
| 2026-04-30 11:08 | 4.99946 | 115.32815 | 36842 ft | 494 kts | 39° |
| 2026-04-30 11:08 | 5.05349 | 115.37081 | 36839 ft | 494 kts | 39° |
| 2026-04-30 11:09 | 5.10739 | 115.41346 | 36834 ft | 494 kts | 39° |
| 2026-04-30 11:09 | 5.16131 | 115.45615 | 36837 ft | 494 kts | 39° |
| 2026-04-30 11:10 | 5.21520 | 115.49881 | 36832 ft | 494 kts | 39° |
| 2026-04-30 11:10 | 5.26922 | 115.54159 | 36826 ft | 494 kts | 39° |
| 2026-04-30 11:11 | 5.32319 | 115.58433 | 36829 ft | 494 kts | 39° |
| 2026-04-30 11:11 | 5.37718 | 115.62710 | 36817 ft | 495 kts | 39° |
| 2026-04-30 11:12 | 5.43143 | 115.66959 | 36821 ft | 494 kts | 39° |
| 2026-04-30 11:12 | 5.48573 | 115.71167 | 36822 ft | 493 kts | 39° |
| 2026-04-30 11:13 | 5.54001 | 115.75382 | 36816 ft | 494 kts | 39° |
| 2026-04-30 11:13 | 5.59436 | 115.79614 | 36817 ft | 494 kts | 39° |
| 2026-04-30 11:14 | 5.64866 | 115.83845 | 36811 ft | 494 kts | 39° |
| 2026-04-30 11:14 | 5.70300 | 115.88082 | 36814 ft | 495 kts | 39° |
| 2026-04-30 11:15 | 5.75734 | 115.92318 | 36825 ft | 495 kts | 39° |
| 2026-04-30 11:15 | 5.81167 | 115.96555 | 36824 ft | 494 kts | 39° |
| 2026-04-30 11:16 | 5.86600 | 116.00793 | 36828 ft | 495 kts | 39° |
| 2026-04-30 11:16 | 5.92053 | 116.05020 | 36828 ft | 495 kts | 38° |
| 2026-04-30 11:17 | 5.97698 | 116.08992 | 36828 ft | 496 kts | 35° |
| 2026-04-30 11:17 | 6.03442 | 116.12902 | 36835 ft | 496 kts | 36° |
| 2026-04-30 11:18 | 6.09123 | 116.16822 | 36840 ft | 496 kts | 36° |
| 2026-04-30 11:18 | 6.17583 | 116.22734 | 36859 ft | 496 kts | 36° |
| 2026-04-30 11:19 | 6.23247 | 116.26704 | 36861 ft | 497 kts | 36° |
| 2026-04-30 11:19 | 6.28909 | 116.30674 | 36873 ft | 496 kts | 36° |
| 2026-04-30 11:20 | 6.34606 | 116.34666 | 36872 ft | 496 kts | 36° |
| 2026-04-30 11:20 | 6.40222 | 116.38603 | 36863 ft | 496 kts | 36° |
| 2026-04-30 11:21 | 6.45876 | 116.42568 | 36874 ft | 496 kts | 36° |
| 2026-04-30 11:21 | 6.51532 | 116.46539 | 36872 ft | 497 kts | 36° |
| 2026-04-30 11:22 | 6.57202 | 116.50513 | 36874 ft | 497 kts | 36° |
| 2026-04-30 11:22 | 6.62874 | 116.54501 | 36874 ft | 497 kts | 36° |
| 2026-04-30 11:23 | 6.68546 | 116.58487 | 36878 ft | 497 kts | 36° |
| 2026-04-30 11:24 | 6.77046 | 116.64464 | 36869 ft | 497 kts | 36° |
| 2026-04-30 11:24 | 6.82710 | 116.68450 | 36862 ft | 497 kts | 36° |
| 2026-04-30 11:25 | 6.91212 | 116.74435 | 36857 ft | 497 kts | 36° |
| 2026-04-30 11:26 | 7.02553 | 116.82423 | 36859 ft | 497 kts | 36° |
| 2026-04-30 11:26 | 7.08220 | 116.86416 | 36877 ft | 497 kts | 36° |
| 2026-04-30 11:27 | 7.13884 | 116.90408 | 36877 ft | 497 kts | 37° |
| 2026-04-30 11:27 | 7.19546 | 116.94401 | 36879 ft | 496 kts | 37° |
| 2026-04-30 11:28 | 7.28029 | 117.00384 | 36885 ft | 496 kts | 37° |
| 2026-04-30 11:29 | 7.33686 | 117.04376 | 36885 ft | 496 kts | 37° |
| 2026-04-30 11:29 | 7.42167 | 117.10363 | 36883 ft | 496 kts | 37° |
| 2026-04-30 11:30 | 7.50655 | 117.16358 | 36885 ft | 497 kts | 37° |
| 2026-04-30 11:31 | 7.56315 | 117.20357 | 36882 ft | 497 kts | 37° |
| 2026-04-30 11:31 | 7.61967 | 117.24352 | 36887 ft | 496 kts | 37° |
| 2026-04-30 11:32 | 7.67622 | 117.28350 | 36886 ft | 496 kts | 37° |
| 2026-04-30 11:32 | 7.73264 | 117.32357 | 36885 ft | 496 kts | 37° |
| 2026-04-30 11:33 | 7.81711 | 117.38406 | 36890 ft | 496 kts | 37° |
| 2026-04-30 11:33 | 7.87341 | 117.42438 | 36888 ft | 497 kts | 37° |
| 2026-04-30 11:34 | 7.92972 | 117.46469 | 36888 ft | 497 kts | 37° |
| 2026-04-30 11:34 | 7.98610 | 117.50504 | 36885 ft | 496 kts | 37° |
| 2026-04-30 11:35 | 8.04232 | 117.54529 | 36888 ft | 496 kts | 37° |
| 2026-04-30 11:35 | 8.09854 | 117.58556 | 36888 ft | 496 kts | 37° |
| 2026-04-30 11:36 | 8.14533 | 117.61908 | 36888 ft | 496 kts | 37° |
| 2026-04-30 11:36 | 8.20161 | 117.65942 | 36888 ft | 496 kts | 37° |
| 2026-04-30 11:37 | 8.25791 | 117.69978 | 36888 ft | 496 kts | 37° |
| 2026-04-30 11:37 | 8.31419 | 117.74015 | 36890 ft | 496 kts | 37° |
| 2026-04-30 11:38 | 8.37045 | 117.78052 | 36891 ft | 496 kts | 37° |
| 2026-04-30 11:38 | 8.42675 | 117.82092 | 36894 ft | 497 kts | 37° |
| 2026-04-30 11:39 | 8.48304 | 117.86135 | 36899 ft | 497 kts | 37° |
| 2026-04-30 11:39 | 8.53944 | 117.90186 | 36893 ft | 497 kts | 37° |
| 2026-04-30 11:40 | 8.59576 | 117.94232 | 36899 ft | 497 kts | 37° |
| 2026-04-30 11:40 | 8.65215 | 117.98286 | 36901 ft | 497 kts | 37° |
| 2026-04-30 11:41 | 8.70847 | 118.02336 | 36904 ft | 497 kts | 37° |
| 2026-04-30 11:41 | 8.76491 | 118.06398 | 36909 ft | 499 kts | 37° |
| 2026-04-30 11:42 | 8.82142 | 118.10465 | 36898 ft | 498 kts | 37° |
| 2026-04-30 11:42 | 8.87782 | 118.14525 | 36904 ft | 498 kts | 37° |
| 2026-04-30 11:43 | 8.93422 | 118.18586 | 36903 ft | 498 kts | 37° |
| 2026-04-30 11:43 | 8.99064 | 118.22652 | 36904 ft | 498 kts | 37° |
| 2026-04-30 11:44 | 9.04703 | 118.26717 | 36908 ft | 498 kts | 36° |
| 2026-04-30 11:44 | 9.10349 | 118.30793 | 36911 ft | 499 kts | 37° |
| 2026-04-30 11:45 | 9.15996 | 118.34887 | 36907 ft | 499 kts | 37° |
| 2026-04-30 11:45 | 9.21638 | 118.38982 | 36912 ft | 498 kts | 37° |
| 2026-04-30 11:46 | 9.27264 | 118.43065 | 36914 ft | 497 kts | 37° |
| 2026-04-30 11:46 | 9.32874 | 118.47138 | 36914 ft | 496 kts | 37° |
| 2026-04-30 11:47 | 9.38495 | 118.51221 | 36913 ft | 498 kts | 37° |
| 2026-04-30 11:47 | 9.44130 | 118.55315 | 36911 ft | 499 kts | 37° |
| 2026-04-30 11:48 | 9.49762 | 118.59409 | 36909 ft | 499 kts | 37° |
| 2026-04-30 11:48 | 9.55403 | 118.63511 | 36911 ft | 499 kts | 37° |
| 2026-04-30 11:49 | 9.61037 | 118.67609 | 36915 ft | 498 kts | 37° |
| 2026-04-30 11:49 | 9.66664 | 118.71704 | 36915 ft | 498 kts | 36° |
| 2026-04-30 11:50 | 9.72269 | 118.75760 | 36916 ft | 499 kts | 34° |
| 2026-04-30 11:50 | 9.78392 | 118.79077 | 36915 ft | 500 kts | 26° |
| 2026-04-30 11:51 | 9.84717 | 118.82018 | 36895 ft | 500 kts | 25° |
| 2026-04-30 11:51 | 9.91071 | 118.84895 | 36895 ft | 500 kts | 25° |
| 2026-04-30 11:52 | 9.97425 | 118.87784 | 36898 ft | 501 kts | 25° |
| 2026-04-30 11:52 | 10.03794 | 118.90698 | 36900 ft | 503 kts | 25° |
| 2026-04-30 11:53 | 10.10173 | 118.93626 | 36897 ft | 503 kts | 25° |
| 2026-04-30 11:53 | 10.16552 | 118.96557 | 36898 ft | 503 kts | 25° |
| 2026-04-30 11:54 | 10.22917 | 118.99481 | 36906 ft | 501 kts | 25° |
| 2026-04-30 11:54 | 10.29259 | 119.02397 | 36909 ft | 500 kts | 25° |
| 2026-04-30 11:55 | 10.35604 | 119.05316 | 36913 ft | 500 kts | 25° |
| 2026-04-30 11:55 | 10.41943 | 119.08236 | 36911 ft | 500 kts | 25° |
| 2026-04-30 11:56 | 10.48286 | 119.11152 | 36909 ft | 500 kts | 25° |
| 2026-04-30 11:56 | 10.54636 | 119.14073 | 36916 ft | 500 kts | 25° |
| 2026-04-30 11:57 | 10.60978 | 119.16996 | 36913 ft | 502 kts | 25° |
| 2026-04-30 11:57 | 10.67345 | 119.19932 | 36911 ft | 503 kts | 25° |
| 2026-04-30 11:58 | 10.73710 | 119.22867 | 36916 ft | 503 kts | 25° |
| 2026-04-30 11:58 | 10.80083 | 119.25806 | 36917 ft | 502 kts | 25° |
| 2026-04-30 11:59 | 10.86433 | 119.28737 | 36920 ft | 500 kts | 25° |
| 2026-04-30 11:59 | 10.92781 | 119.31669 | 36924 ft | 502 kts | 25° |
| 2026-04-30 12:00 | 10.99152 | 119.34613 | 36922 ft | 503 kts | 25° |
| 2026-04-30 12:00 | 11.05534 | 119.37562 | 36925 ft | 503 kts | 25° |
| 2026-04-30 12:01 | 11.11910 | 119.40510 | 36921 ft | 503 kts | 25° |
| 2026-04-30 12:01 | 11.18289 | 119.43461 | 36927 ft | 503 kts | 25° |
| 2026-04-30 12:02 | 11.24666 | 119.46413 | 36925 ft | 504 kts | 25° |
| 2026-04-30 12:02 | 11.31051 | 119.49370 | 36922 ft | 504 kts | 25° |
| 2026-04-30 12:03 | 11.40633 | 119.53809 | 36920 ft | 504 kts | 25° |
| 2026-04-30 12:04 | 11.47015 | 119.56768 | 36926 ft | 504 kts | 25° |
| 2026-04-30 12:04 | 11.53402 | 119.59731 | 36925 ft | 504 kts | 25° |
| 2026-04-30 12:05 | 11.59790 | 119.62696 | 36920 ft | 505 kts | 25° |
| 2026-04-30 12:05 | 11.66178 | 119.65663 | 36922 ft | 505 kts | 25° |
| 2026-04-30 12:06 | 11.72530 | 119.68622 | 36926 ft | 505 kts | 25° |
| 2026-04-30 12:06 | 11.78897 | 119.71640 | 36922 ft | 505 kts | 25° |
| 2026-04-30 12:07 | 11.85274 | 119.74675 | 36921 ft | 506 kts | 25° |
| 2026-04-30 12:07 | 11.91666 | 119.77715 | 36922 ft | 507 kts | 25° |
| 2026-04-30 12:08 | 11.98057 | 119.80751 | 36927 ft | 507 kts | 25° |
| 2026-04-30 12:08 | 12.04450 | 119.83788 | 36926 ft | 507 kts | 25° |
| 2026-04-30 12:09 | 12.10836 | 119.86824 | 36926 ft | 506 kts | 25° |
| 2026-04-30 12:09 | 12.17228 | 119.89864 | 36924 ft | 507 kts | 25° |
| 2026-04-30 12:10 | 12.23628 | 119.92910 | 36921 ft | 507 kts | 25° |
| 2026-04-30 12:10 | 12.30032 | 119.95960 | 36924 ft | 508 kts | 25° |
| 2026-04-30 12:11 | 12.36434 | 119.99010 | 36922 ft | 508 kts | 25° |
| 2026-04-30 12:11 | 12.42836 | 120.02062 | 36924 ft | 508 kts | 25° |
| 2026-04-30 12:12 | 12.49249 | 120.05121 | 36924 ft | 509 kts | 25° |
| 2026-04-30 12:12 | 12.55672 | 120.08186 | 36925 ft | 509 kts | 25° |
| 2026-04-30 12:13 | 12.62085 | 120.11248 | 36923 ft | 509 kts | 25° |
| 2026-04-30 12:13 | 12.68498 | 120.14312 | 36922 ft | 508 kts | 25° |
| 2026-04-30 12:14 | 12.74916 | 120.17380 | 36924 ft | 510 kts | 25° |
| 2026-04-30 12:14 | 12.81347 | 120.20456 | 36924 ft | 510 kts | 25° |
| 2026-04-30 12:15 | 12.87775 | 120.23532 | 36922 ft | 510 kts | 25° |
| 2026-04-30 12:15 | 12.94209 | 120.26613 | 36923 ft | 510 kts | 25° |
| 2026-04-30 12:16 | 13.00637 | 120.29693 | 36923 ft | 510 kts | 25° |
| 2026-04-30 12:16 | 13.07075 | 120.32779 | 36923 ft | 512 kts | 25° |
| 2026-04-30 12:17 | 13.16751 | 120.37421 | 36925 ft | 512 kts | 25° |
| 2026-04-30 12:17 | 13.21062 | 120.39490 | 36926 ft | 512 kts | 25° |